sensor_id;sensor_type;location;lat;lon;timestamp;P1;durP1;ratioP1;P2;durP2;ratioP2
48849;SDS011;63210;53.370;6.770;2023-04-03T00:00:02;1.27;;;0.88;;
48849;SDS011;63210;53.370;6.770;2023-04-03T00:02:28;2.05;;;0.88;;
48849;SDS011;63210;53.370;6.770;2023-04-03T00:04:53;1.75;;;1.23;;
48849;SDS011;63210;53.370;6.770;2023-04-03T00:07:18;3.40;;;1.00;;
48849;SDS011;63210;53.370;6.770;2023-04-03T00:09:44;2.25;;;1.45;;
48849;SDS011;63210;53.370;6.770;2023-04-03T00:12:09;2.20;;;0.90;;
48849;SDS011;63210;53.370;6.770;2023-04-03T00:14:35;3.17;;;0.90;;
48849;SDS011;63210;53.370;6.770;2023-04-03T00:17:00;2.40;;;1.05;;
48849;SDS011;63210;53.370;6.770;2023-04-03T00:19:29;1.20;;;1.10;;
48849;SDS011;63210;53.370;6.770;2023-04-03T00:21:54;2.55;;;1.25;;
48849;SDS011;63210;53.370;6.770;2023-04-03T00:24:20;1.83;;;1.10;;
48849;SDS011;63210;53.370;6.770;2023-04-03T00:26:45;1.63;;;1.10;;
48849;SDS011;63210;53.370;6.770;2023-04-03T00:29:10;3.55;;;1.10;;
48849;SDS011;63210;53.370;6.770;2023-04-03T00:31:39;2.88;;;1.30;;
48849;SDS011;63210;53.370;6.770;2023-04-03T00:34:10;2.92;;;1.30;;
48849;SDS011;63210;53.370;6.770;2023-04-03T00:36:36;5.32;;;2.60;;
48849;SDS011;63210;53.370;6.770;2023-04-03T00:39:01;1.27;;;1.10;;
48849;SDS011;63210;53.370;6.770;2023-04-03T00:41:29;2.92;;;1.20;;
48849;SDS011;63210;53.370;6.770;2023-04-03T00:43:54;3.42;;;1.20;;
48849;SDS011;63210;53.370;6.770;2023-04-03T00:46:23;7.93;;;1.33;;
48849;SDS011;63210;53.370;6.770;2023-04-03T00:48:51;3.65;;;2.10;;
48849;SDS011;63210;53.370;6.770;2023-04-03T00:51:18;3.75;;;1.40;;
48849;SDS011;63210;53.370;6.770;2023-04-03T00:53:48;2.83;;;1.60;;
48849;SDS011;63210;53.370;6.770;2023-04-03T00:56:18;2.47;;;1.20;;
48849;SDS011;63210;53.370;6.770;2023-04-03T00:58:54;2.33;;;1.60;;
48849;SDS011;63210;53.370;6.770;2023-04-03T01:01:23;2.15;;;1.17;;
48849;SDS011;63210;53.370;6.770;2023-04-03T01:03:49;4.70;;;1.73;;
48849;SDS011;63210;53.370;6.770;2023-04-03T01:06:16;2.28;;;1.20;;
48849;SDS011;63210;53.370;6.770;2023-04-03T01:08:42;3.47;;;1.25;;
48849;SDS011;63210;53.370;6.770;2023-04-03T01:11:07;2.40;;;1.20;;
48849;SDS011;63210;53.370;6.770;2023-04-03T01:13:33;1.65;;;1.10;;
48849;SDS011;63210;53.370;6.770;2023-04-03T01:16:03;3.22;;;1.40;;
48849;SDS011;63210;53.370;6.770;2023-04-03T01:18:28;5.45;;;1.48;;
48849;SDS011;63210;53.370;6.770;2023-04-03T01:23:50;1.30;;;1.20;;
48849;SDS011;63210;53.370;6.770;2023-04-03T01:26:20;1.48;;;1.30;;
48849;SDS011;63210;53.370;6.770;2023-04-03T01:28:46;1.52;;;1.10;;
48849;SDS011;63210;53.370;6.770;2023-04-03T01:33:52;3.10;;;1.67;;
48849;SDS011;63210;53.370;6.770;2023-04-03T01:36:25;2.53;;;1.30;;
48849;SDS011;63210;53.370;6.770;2023-04-03T01:38:55;4.70;;;1.35;;
48849;SDS011;63210;53.370;6.770;2023-04-03T01:41:21;3.63;;;1.50;;
48849;SDS011;63210;53.370;6.770;2023-04-03T01:43:46;3.53;;;1.20;;
48849;SDS011;63210;53.370;6.770;2023-04-03T01:46:12;4.65;;;1.30;;
48849;SDS011;63210;53.370;6.770;2023-04-03T01:48:43;5.40;;;1.67;;
48849;SDS011;63210;53.370;6.770;2023-04-03T01:51:08;5.43;;;1.40;;
48849;SDS011;63210;53.370;6.770;2023-04-03T01:53:40;5.20;;;1.40;;
48849;SDS011;63210;53.370;6.770;2023-04-03T01:56:06;3.17;;;1.20;;
48849;SDS011;63210;53.370;6.770;2023-04-03T01:58:34;6.25;;;1.90;;
48849;SDS011;63210;53.370;6.770;2023-04-03T02:01:00;5.70;;;2.10;;
48849;SDS011;63210;53.370;6.770;2023-04-03T02:03:26;4.63;;;1.42;;
48849;SDS011;63210;53.370;6.770;2023-04-03T02:05:52;8.73;;;1.88;;
48849;SDS011;63210;53.370;6.770;2023-04-03T02:08:25;5.53;;;1.55;;
48849;SDS011;63210;53.370;6.770;2023-04-03T02:10:50;3.03;;;1.48;;
48849;SDS011;63210;53.370;6.770;2023-04-03T02:13:16;2.47;;;1.83;;
48849;SDS011;63210;53.370;6.770;2023-04-03T02:15:41;4.13;;;1.85;;
48849;SDS011;63210;53.370;6.770;2023-04-03T02:18:07;5.47;;;1.90;;
48849;SDS011;63210;53.370;6.770;2023-04-03T02:20:32;3.40;;;1.70;;
48849;SDS011;63210;53.370;6.770;2023-04-03T02:22:58;8.75;;;1.70;;
48849;SDS011;63210;53.370;6.770;2023-04-03T02:25:24;5.35;;;1.70;;
48849;SDS011;63210;53.370;6.770;2023-04-03T02:27:49;2.25;;;1.38;;
48849;SDS011;63210;53.370;6.770;2023-04-03T02:30:15;4.57;;;1.52;;
48849;SDS011;63210;53.370;6.770;2023-04-03T02:32:41;2.95;;;1.98;;
48849;SDS011;63210;53.370;6.770;2023-04-03T02:35:07;3.63;;;1.90;;
48849;SDS011;63210;53.370;6.770;2023-04-03T02:37:32;4.53;;;1.75;;
48849;SDS011;63210;53.370;6.770;2023-04-03T02:39:58;3.47;;;1.45;;
48849;SDS011;63210;53.370;6.770;2023-04-03T02:42:23;5.82;;;1.70;;
48849;SDS011;63210;53.370;6.770;2023-04-03T02:44:49;6.30;;;1.70;;
48849;SDS011;63210;53.370;6.770;2023-04-03T02:47:14;3.55;;;1.65;;
48849;SDS011;63210;53.370;6.770;2023-04-03T02:49:40;5.63;;;1.90;;
48849;SDS011;63210;53.370;6.770;2023-04-03T02:52:05;3.72;;;1.67;;
48849;SDS011;63210;53.370;6.770;2023-04-03T02:54:30;4.45;;;1.30;;
48849;SDS011;63210;53.370;6.770;2023-04-03T02:56:56;3.65;;;1.50;;
48849;SDS011;63210;53.370;6.770;2023-04-03T02:59:22;4.72;;;1.65;;
48849;SDS011;63210;53.370;6.770;2023-04-03T03:01:47;3.30;;;1.48;;
48849;SDS011;63210;53.370;6.770;2023-04-03T03:04:13;2.60;;;1.40;;
48849;SDS011;63210;53.370;6.770;2023-04-03T03:06:38;5.20;;;1.70;;
48849;SDS011;63210;53.370;6.770;2023-04-03T03:09:04;5.00;;;1.40;;
48849;SDS011;63210;53.370;6.770;2023-04-03T03:11:36;5.47;;;1.73;;
48849;SDS011;63210;53.370;6.770;2023-04-03T03:14:02;6.28;;;1.73;;
48849;SDS011;63210;53.370;6.770;2023-04-03T03:16:30;7.22;;;1.60;;
48849;SDS011;63210;53.370;6.770;2023-04-03T03:18:55;6.47;;;2.55;;
48849;SDS011;63210;53.370;6.770;2023-04-03T03:21:23;4.95;;;1.52;;
48849;SDS011;63210;53.370;6.770;2023-04-03T03:23:49;5.05;;;1.60;;
48849;SDS011;63210;53.370;6.770;2023-04-03T03:26:14;3.33;;;1.60;;
48849;SDS011;63210;53.370;6.770;2023-04-03T03:28:39;2.58;;;1.33;;
48849;SDS011;63210;53.370;6.770;2023-04-03T03:31:05;2.78;;;1.02;;
48849;SDS011;63210;53.370;6.770;2023-04-03T03:33:34;3.80;;;1.52;;
48849;SDS011;63210;53.370;6.770;2023-04-03T03:35:59;3.60;;;1.50;;
48849;SDS011;63210;53.370;6.770;2023-04-03T03:38:25;3.85;;;1.58;;
48849;SDS011;63210;53.370;6.770;2023-04-03T03:40:51;6.22;;;1.80;;
48849;SDS011;63210;53.370;6.770;2023-04-03T03:43:17;2.63;;;1.17;;
48849;SDS011;63210;53.370;6.770;2023-04-03T03:45:43;5.60;;;1.55;;
48849;SDS011;63210;53.370;6.770;2023-04-03T03:48:11;5.18;;;1.95;;
48849;SDS011;63210;53.370;6.770;2023-04-03T03:50:49;2.20;;;1.67;;
48849;SDS011;63210;53.370;6.770;2023-04-03T03:53:14;2.10;;;1.55;;
48849;SDS011;63210;53.370;6.770;2023-04-03T03:55:40;6.18;;;1.70;;
48849;SDS011;63210;53.370;6.770;2023-04-03T03:58:05;4.75;;;1.98;;
48849;SDS011;63210;53.370;6.770;2023-04-03T04:00:31;6.60;;;1.92;;
48849;SDS011;63210;53.370;6.770;2023-04-03T04:03:02;2.97;;;1.75;;
48849;SDS011;63210;53.370;6.770;2023-04-03T04:05:28;5.40;;;2.42;;
48849;SDS011;63210;53.370;6.770;2023-04-03T04:07:53;2.95;;;1.33;;
48849;SDS011;63210;53.370;6.770;2023-04-03T04:10:18;6.10;;;1.70;;
48849;SDS011;63210;53.370;6.770;2023-04-03T04:12:44;4.97;;;1.83;;
48849;SDS011;63210;53.370;6.770;2023-04-03T04:15:09;5.28;;;2.13;;
48849;SDS011;63210;53.370;6.770;2023-04-03T04:17:35;4.15;;;1.63;;
48849;SDS011;63210;53.370;6.770;2023-04-03T04:20:02;5.32;;;1.98;;
48849;SDS011;63210;53.370;6.770;2023-04-03T04:22:30;7.40;;;1.48;;
48849;SDS011;63210;53.370;6.770;2023-04-03T04:24:57;4.35;;;1.88;;
48849;SDS011;63210;53.370;6.770;2023-04-03T04:27:22;4.93;;;1.88;;
48849;SDS011;63210;53.370;6.770;2023-04-03T04:29:50;7.45;;;1.98;;
48849;SDS011;63210;53.370;6.770;2023-04-03T04:32:18;2.08;;;1.58;;
48849;SDS011;63210;53.370;6.770;2023-04-03T04:34:44;4.63;;;1.55;;
48849;SDS011;63210;53.370;6.770;2023-04-03T04:37:12;3.55;;;2.05;;
48849;SDS011;63210;53.370;6.770;2023-04-03T04:39:39;11.55;;;2.33;;
48849;SDS011;63210;53.370;6.770;2023-04-03T04:42:08;5.68;;;1.80;;
48849;SDS011;63210;53.370;6.770;2023-04-03T04:44:38;4.97;;;2.28;;
48849;SDS011;63210;53.370;6.770;2023-04-03T04:47:03;6.65;;;2.10;;
48849;SDS011;63210;53.370;6.770;2023-04-03T04:49:28;4.70;;;1.70;;
48849;SDS011;63210;53.370;6.770;2023-04-03T04:51:54;6.22;;;1.95;;
48849;SDS011;63210;53.370;6.770;2023-04-03T04:54:19;5.30;;;2.85;;
48849;SDS011;63210;53.370;6.770;2023-04-03T04:56:44;3.30;;;1.73;;
48849;SDS011;63210;53.370;6.770;2023-04-03T04:59:10;11.45;;;5.20;;
48849;SDS011;63210;53.370;6.770;2023-04-03T05:01:47;6.63;;;2.22;;
48849;SDS011;63210;53.370;6.770;2023-04-03T05:04:15;6.50;;;2.10;;
48849;SDS011;63210;53.370;6.770;2023-04-03T05:06:46;2.45;;;1.70;;
48849;SDS011;63210;53.370;6.770;2023-04-03T05:09:11;5.57;;;2.10;;
48849;SDS011;63210;53.370;6.770;2023-04-03T05:11:37;7.20;;;2.25;;
48849;SDS011;63210;53.370;6.770;2023-04-03T05:14:02;5.95;;;2.30;;
48849;SDS011;63210;53.370;6.770;2023-04-03T05:16:33;7.45;;;2.22;;
48849;SDS011;63210;53.370;6.770;2023-04-03T05:18:58;5.63;;;2.08;;
48849;SDS011;63210;53.370;6.770;2023-04-03T05:21:30;7.18;;;2.40;;
48849;SDS011;63210;53.370;6.770;2023-04-03T05:24:00;4.72;;;1.95;;
48849;SDS011;63210;53.370;6.770;2023-04-03T05:26:27;5.25;;;2.15;;
48849;SDS011;63210;53.370;6.770;2023-04-03T05:28:56;7.85;;;2.72;;
48849;SDS011;63210;53.370;6.770;2023-04-03T05:31:21;5.95;;;2.10;;
48849;SDS011;63210;53.370;6.770;2023-04-03T05:33:50;5.13;;;2.92;;
48849;SDS011;63210;53.370;6.770;2023-04-03T05:36:15;7.85;;;2.20;;
48849;SDS011;63210;53.370;6.770;2023-04-03T05:38:43;2.63;;;1.73;;
48849;SDS011;63210;53.370;6.770;2023-04-03T05:41:09;4.75;;;2.33;;
48849;SDS011;63210;53.370;6.770;2023-04-03T05:43:37;4.93;;;2.58;;
48849;SDS011;63210;53.370;6.770;2023-04-03T05:46:14;6.93;;;2.45;;
48849;SDS011;63210;53.370;6.770;2023-04-03T05:48:39;4.97;;;2.30;;
48849;SDS011;63210;53.370;6.770;2023-04-03T05:51:09;4.22;;;2.45;;
48849;SDS011;63210;53.370;6.770;2023-04-03T05:53:38;7.18;;;2.80;;
48849;SDS011;63210;53.370;6.770;2023-04-03T05:56:06;7.32;;;2.65;;
48849;SDS011;63210;53.370;6.770;2023-04-03T05:58:32;4.50;;;2.33;;
48849;SDS011;63210;53.370;6.770;2023-04-03T06:01:00;8.55;;;2.35;;
48849;SDS011;63210;53.370;6.770;2023-04-03T06:03:25;4.90;;;2.15;;
48849;SDS011;63210;53.370;6.770;2023-04-03T06:05:51;8.05;;;2.35;;
48849;SDS011;63210;53.370;6.770;2023-04-03T06:08:16;5.70;;;2.35;;
48849;SDS011;63210;53.370;6.770;2023-04-03T06:10:41;3.63;;;2.22;;
48849;SDS011;63210;53.370;6.770;2023-04-03T06:13:07;4.25;;;2.08;;
48849;SDS011;63210;53.370;6.770;2023-04-03T06:15:35;5.75;;;2.15;;
48849;SDS011;63210;53.370;6.770;2023-04-03T06:18:02;8.40;;;2.53;;
48849;SDS011;63210;53.370;6.770;2023-04-03T06:20:27;3.35;;;2.10;;
48849;SDS011;63210;53.370;6.770;2023-04-03T06:22:53;3.35;;;2.10;;
48849;SDS011;63210;53.370;6.770;2023-04-03T06:25:18;5.72;;;2.60;;
48849;SDS011;63210;53.370;6.770;2023-04-03T06:27:47;6.93;;;2.42;;
48849;SDS011;63210;53.370;6.770;2023-04-03T06:30:15;9.07;;;3.03;;
48849;SDS011;63210;53.370;6.770;2023-04-03T06:32:40;6.05;;;2.72;;
48849;SDS011;63210;53.370;6.770;2023-04-03T06:35:06;5.03;;;2.20;;
48849;SDS011;63210;53.370;6.770;2023-04-03T06:37:32;6.63;;;2.42;;
48849;SDS011;63210;53.370;6.770;2023-04-03T06:39:59;8.27;;;2.70;;
48849;SDS011;63210;53.370;6.770;2023-04-03T06:42:25;3.33;;;2.08;;
48849;SDS011;63210;53.370;6.770;2023-04-03T06:44:53;9.43;;;2.40;;
48849;SDS011;63210;53.370;6.770;2023-04-03T06:47:22;6.82;;;2.58;;
48849;SDS011;63210;53.370;6.770;2023-04-03T06:49:47;8.35;;;2.67;;
48849;SDS011;63210;53.370;6.770;2023-04-03T06:52:16;7.80;;;2.60;;
48849;SDS011;63210;53.370;6.770;2023-04-03T06:54:41;8.40;;;2.75;;
48849;SDS011;63210;53.370;6.770;2023-04-03T06:57:07;7.63;;;2.47;;
48849;SDS011;63210;53.370;6.770;2023-04-03T06:59:32;4.07;;;2.40;;
48849;SDS011;63210;53.370;6.770;2023-04-03T07:02:00;5.80;;;2.55;;
48849;SDS011;63210;53.370;6.770;2023-04-03T07:04:29;7.80;;;2.75;;
48849;SDS011;63210;53.370;6.770;2023-04-03T07:06:54;5.40;;;2.63;;
48849;SDS011;63210;53.370;6.770;2023-04-03T07:09:23;7.72;;;2.33;;
48849;SDS011;63210;53.370;6.770;2023-04-03T07:11:54;7.32;;;2.55;;
48849;SDS011;63210;53.370;6.770;2023-04-03T07:14:22;6.68;;;2.42;;
48849;SDS011;63210;53.370;6.770;2023-04-03T07:16:48;8.50;;;2.40;;
48849;SDS011;63210;53.370;6.770;2023-04-03T07:19:13;7.10;;;2.10;;
48849;SDS011;63210;53.370;6.770;2023-04-03T07:21:42;7.53;;;2.67;;
48849;SDS011;63210;53.370;6.770;2023-04-03T07:24:08;5.32;;;2.65;;
48849;SDS011;63210;53.370;6.770;2023-04-03T07:26:43;3.03;;;2.15;;
48849;SDS011;63210;53.370;6.770;2023-04-03T07:29:15;6.65;;;2.75;;
48849;SDS011;63210;53.370;6.770;2023-04-03T07:31:53;6.25;;;2.53;;
48849;SDS011;63210;53.370;6.770;2023-04-03T07:34:27;7.78;;;2.38;;
48849;SDS011;63210;53.370;6.770;2023-04-03T07:36:59;5.20;;;2.28;;
48849;SDS011;63210;53.370;6.770;2023-04-03T07:39:25;5.47;;;2.30;;
48849;SDS011;63210;53.370;6.770;2023-04-03T07:42:02;5.80;;;2.20;;
48849;SDS011;63210;53.370;6.770;2023-04-03T07:44:30;5.40;;;2.42;;
48849;SDS011;63210;53.370;6.770;2023-04-03T07:47:03;6.50;;;2.20;;
48849;SDS011;63210;53.370;6.770;2023-04-03T07:49:34;4.43;;;2.72;;
48849;SDS011;63210;53.370;6.770;2023-04-03T07:52:07;6.05;;;2.17;;
48849;SDS011;63210;53.370;6.770;2023-04-03T07:54:38;6.45;;;1.75;;
48849;SDS011;63210;53.370;6.770;2023-04-03T07:57:27;5.88;;;1.80;;
48849;SDS011;63210;53.370;6.770;2023-04-03T08:03:05;6.38;;;2.25;;
48849;SDS011;63210;53.370;6.770;2023-04-03T08:05:43;7.22;;;2.40;;
48849;SDS011;63210;53.370;6.770;2023-04-03T08:08:15;8.88;;;2.10;;
48849;SDS011;63210;53.370;6.770;2023-04-03T08:10:57;6.03;;;2.00;;
48849;SDS011;63210;53.370;6.770;2023-04-03T08:16:55;5.13;;;2.00;;
48849;SDS011;63210;53.370;6.770;2023-04-03T08:19:33;3.85;;;2.00;;
48849;SDS011;63210;53.370;6.770;2023-04-03T08:22:10;6.88;;;2.38;;
48849;SDS011;63210;53.370;6.770;2023-04-03T08:24:42;4.63;;;2.10;;
48849;SDS011;63210;53.370;6.770;2023-04-03T08:30:28;6.00;;;2.22;;
48849;SDS011;63210;53.370;6.770;2023-04-03T08:32:59;6.43;;;2.40;;
48849;SDS011;63210;53.370;6.770;2023-04-03T08:35:48;5.30;;;1.90;;
48849;SDS011;63210;53.370;6.770;2023-04-03T08:41:15;5.70;;;2.08;;
48849;SDS011;63210;53.370;6.770;2023-04-03T08:50:22;3.15;;;1.45;;
48849;SDS011;63210;53.370;6.770;2023-04-03T08:58:58;4.45;;;2.25;;
48849;SDS011;63210;53.370;6.770;2023-04-03T09:04:02;3.97;;;1.55;;
48849;SDS011;63210;53.370;6.770;2023-04-03T09:07:31;3.00;;;1.83;;
48849;SDS011;63210;53.370;6.770;2023-04-03T09:10:03;4.50;;;1.55;;
48849;SDS011;63210;53.370;6.770;2023-04-03T09:13:10;3.85;;;1.77;;
48849;SDS011;63210;53.370;6.770;2023-04-03T09:22:31;4.10;;;1.67;;
48849;SDS011;63210;53.370;6.770;2023-04-03T09:25:02;3.80;;;1.58;;
48849;SDS011;63210;53.370;6.770;2023-04-03T09:27:35;4.40;;;1.50;;
48849;SDS011;63210;53.370;6.770;2023-04-03T09:36:14;3.17;;;1.40;;
48849;SDS011;63210;53.370;6.770;2023-04-03T09:41:29;2.80;;;1.13;;
48849;SDS011;63210;53.370;6.770;2023-04-03T09:49:32;4.38;;;1.60;;
48849;SDS011;63210;53.370;6.770;2023-04-03T09:51:57;6.85;;;1.67;;
48849;SDS011;63210;53.370;6.770;2023-04-03T09:54:42;3.22;;;1.65;;
48849;SDS011;63210;53.370;6.770;2023-04-03T10:06:22;5.80;;;1.30;;
48849;SDS011;63210;53.370;6.770;2023-04-03T10:09:03;2.85;;;1.30;;
48849;SDS011;63210;53.370;6.770;2023-04-03T10:11:32;4.32;;;1.60;;
48849;SDS011;63210;53.370;6.770;2023-04-03T10:16:46;0.98;;;0.80;;
48849;SDS011;63210;53.370;6.770;2023-04-03T10:19:35;1.40;;;0.77;;
48849;SDS011;63210;53.370;6.770;2023-04-03T10:22:22;1.73;;;1.00;;
48849;SDS011;63210;53.370;6.770;2023-04-03T10:36:17;4.38;;;1.10;;
48849;SDS011;63210;53.370;6.770;2023-04-03T10:38:55;2.85;;;1.13;;
48849;SDS011;63210;53.370;6.770;2023-04-03T10:46:38;3.05;;;1.30;;
48849;SDS011;63210;53.370;6.770;2023-04-03T10:54:39;2.28;;;1.30;;
48849;SDS011;63210;53.370;6.770;2023-04-03T10:57:08;3.03;;;1.33;;
48849;SDS011;63210;53.370;6.770;2023-04-03T10:59:44;4.80;;;1.88;;
48849;SDS011;63210;53.370;6.770;2023-04-03T11:02:32;3.05;;;1.40;;
48849;SDS011;63210;53.370;6.770;2023-04-03T11:05:13;1.80;;;1.33;;
48849;SDS011;63210;53.370;6.770;2023-04-03T11:07:45;3.67;;;1.60;;
48849;SDS011;63210;53.370;6.770;2023-04-03T11:10:17;3.03;;;1.48;;
48849;SDS011;63210;53.370;6.770;2023-04-03T11:13:01;4.07;;;1.67;;
48849;SDS011;63210;53.370;6.770;2023-04-03T11:15:48;4.43;;;1.40;;
48849;SDS011;63210;53.370;6.770;2023-04-03T11:18:18;1.38;;;1.00;;
48849;SDS011;63210;53.370;6.770;2023-04-03T11:20:59;3.83;;;1.23;;
48849;SDS011;63210;53.370;6.770;2023-04-03T11:23:38;2.45;;;1.38;;
48849;SDS011;63210;53.370;6.770;2023-04-03T11:26:27;3.72;;;1.13;;
48849;SDS011;63210;53.370;6.770;2023-04-03T11:29:01;2.63;;;1.40;;
48849;SDS011;63210;53.370;6.770;2023-04-03T11:31:32;4.13;;;1.58;;
48849;SDS011;63210;53.370;6.770;2023-04-03T11:36:50;2.85;;;1.40;;
48849;SDS011;63210;53.370;6.770;2023-04-03T11:39:25;2.92;;;1.30;;
48849;SDS011;63210;53.370;6.770;2023-04-03T11:41:58;2.28;;;1.10;;
48849;SDS011;63210;53.370;6.770;2023-04-03T11:44:41;2.90;;;1.38;;
48849;SDS011;63210;53.370;6.770;2023-04-03T11:47:08;3.38;;;1.60;;
48849;SDS011;63210;53.370;6.770;2023-04-03T11:58:03;3.38;;;1.50;;
48849;SDS011;63210;53.370;6.770;2023-04-03T12:08:46;2.60;;;1.40;;
48849;SDS011;63210;53.370;6.770;2023-04-03T12:16:04;2.80;;;1.48;;
48849;SDS011;63210;53.370;6.770;2023-04-03T12:21:12;1.75;;;1.30;;
48849;SDS011;63210;53.370;6.770;2023-04-03T12:26:48;2.58;;;1.45;;
48849;SDS011;63210;53.370;6.770;2023-04-03T12:37:30;3.90;;;1.40;;
48849;SDS011;63210;53.370;6.770;2023-04-03T12:45:43;4.07;;;1.42;;
48849;SDS011;63210;53.370;6.770;2023-04-03T12:48:17;1.70;;;1.38;;
48849;SDS011;63210;53.370;6.770;2023-04-03T12:50:43;2.63;;;1.48;;
48849;SDS011;63210;53.370;6.770;2023-04-03T12:53:33;3.25;;;1.50;;
48849;SDS011;63210;53.370;6.770;2023-04-03T12:56:18;4.22;;;1.60;;
48849;SDS011;63210;53.370;6.770;2023-04-03T12:58:50;5.07;;;1.45;;
48849;SDS011;63210;53.370;6.770;2023-04-03T13:01:25;3.70;;;1.40;;
48849;SDS011;63210;53.370;6.770;2023-04-03T13:03:57;3.05;;;1.33;;
48849;SDS011;63210;53.370;6.770;2023-04-03T13:06:24;5.07;;;1.73;;
48849;SDS011;63210;53.370;6.770;2023-04-03T13:08:56;1.50;;;1.10;;
48849;SDS011;63210;53.370;6.770;2023-04-03T13:11:22;2.13;;;1.13;;
48849;SDS011;63210;53.370;6.770;2023-04-03T13:16:40;2.28;;;1.17;;
48849;SDS011;63210;53.370;6.770;2023-04-03T13:19:06;1.80;;;1.20;;
48849;SDS011;63210;53.370;6.770;2023-04-03T13:21:41;3.08;;;1.20;;
48849;SDS011;63210;53.370;6.770;2023-04-03T13:24:08;1.75;;;1.10;;
48849;SDS011;63210;53.370;6.770;2023-04-03T13:26:39;2.22;;;1.15;;
48849;SDS011;63210;53.370;6.770;2023-04-03T13:29:06;3.35;;;1.10;;
48849;SDS011;63210;53.370;6.770;2023-04-03T13:31:36;1.55;;;1.10;;
48849;SDS011;63210;53.370;6.770;2023-04-03T13:34:05;1.65;;;0.98;;
48849;SDS011;63210;53.370;6.770;2023-04-03T13:36:37;2.72;;;1.00;;
48849;SDS011;63210;53.370;6.770;2023-04-03T13:41:37;3.00;;;1.00;;
48849;SDS011;63210;53.370;6.770;2023-04-03T13:46:54;5.68;;;0.93;;
48849;SDS011;63210;53.370;6.770;2023-04-03T13:51:46;4.18;;;1.13;;
48849;SDS011;63210;53.370;6.770;2023-04-03T13:54:17;4.03;;;1.27;;
48849;SDS011;63210;53.370;6.770;2023-04-03T13:56:43;4.35;;;1.17;;
48849;SDS011;63210;53.370;6.770;2023-04-03T14:04:27;6.70;;;1.97;;
48849;SDS011;63210;53.370;6.770;2023-04-03T14:06:53;3.85;;;1.25;;
48849;SDS011;63210;53.370;6.770;2023-04-03T14:09:27;6.25;;;1.38;;
48849;SDS011;63210;53.370;6.770;2023-04-03T14:12:00;5.55;;;1.00;;
48849;SDS011;63210;53.370;6.770;2023-04-03T14:17:42;2.45;;;1.20;;
48849;SDS011;63210;53.370;6.770;2023-04-03T14:20:10;1.10;;;0.93;;
48849;SDS011;63210;53.370;6.770;2023-04-03T14:25:04;0.70;;;0.70;;
48849;SDS011;63210;53.370;6.770;2023-04-03T14:27:34;4.32;;;0.85;;
48849;SDS011;63210;53.370;6.770;2023-04-03T14:33:15;1.80;;;1.00;;
48849;SDS011;63210;53.370;6.770;2023-04-03T14:35:41;2.58;;;1.05;;
48849;SDS011;63210;53.370;6.770;2023-04-03T14:38:27;2.15;;;1.23;;
48849;SDS011;63210;53.370;6.770;2023-04-03T14:40:59;1.20;;;0.90;;
48849;SDS011;63210;53.370;6.770;2023-04-03T14:43:25;1.25;;;0.80;;
48849;SDS011;63210;53.370;6.770;2023-04-03T14:45:57;1.92;;;0.90;;
48849;SDS011;63210;53.370;6.770;2023-04-03T14:48:26;3.30;;;1.50;;
48849;SDS011;63210;53.370;6.770;2023-04-03T14:50:58;1.40;;;0.82;;
48849;SDS011;63210;53.370;6.770;2023-04-03T14:53:26;1.08;;;0.98;;
48849;SDS011;63210;53.370;6.770;2023-04-03T14:56:36;2.65;;;0.95;;
48849;SDS011;63210;53.370;6.770;2023-04-03T14:59:01;4.15;;;1.27;;
48849;SDS011;63210;53.370;6.770;2023-04-03T15:01:27;4.43;;;0.95;;
48849;SDS011;63210;53.370;6.770;2023-04-03T15:04:14;2.88;;;0.88;;
48849;SDS011;63210;53.370;6.770;2023-04-03T15:06:43;1.08;;;0.93;;
48849;SDS011;63210;53.370;6.770;2023-04-03T15:09:22;2.13;;;1.30;;
48849;SDS011;63210;53.370;6.770;2023-04-03T15:11:54;3.35;;;1.02;;
48849;SDS011;63210;53.370;6.770;2023-04-03T15:14:20;1.40;;;1.00;;
48849;SDS011;63210;53.370;6.770;2023-04-03T15:16:50;2.10;;;1.10;;
48849;SDS011;63210;53.370;6.770;2023-04-03T15:19:18;3.90;;;2.17;;
48849;SDS011;63210;53.370;6.770;2023-04-03T15:21:46;5.45;;;1.35;;
48849;SDS011;63210;53.370;6.770;2023-04-03T15:24:20;0.95;;;0.80;;
48849;SDS011;63210;53.370;6.770;2023-04-03T15:26:48;4.15;;;1.40;;
48849;SDS011;63210;53.370;6.770;2023-04-03T15:29:14;2.33;;;1.10;;
48849;SDS011;63210;53.370;6.770;2023-04-03T15:31:45;4.13;;;1.00;;
48849;SDS011;63210;53.370;6.770;2023-04-03T15:34:13;3.40;;;1.10;;
48849;SDS011;63210;53.370;6.770;2023-04-03T15:36:39;2.97;;;1.02;;
48849;SDS011;63210;53.370;6.770;2023-04-03T15:39:07;2.20;;;1.13;;
48849;SDS011;63210;53.370;6.770;2023-04-03T15:41:32;3.45;;;1.30;;
48849;SDS011;63210;53.370;6.770;2023-04-03T15:44:05;1.95;;;1.23;;
48849;SDS011;63210;53.370;6.770;2023-04-03T15:46:31;1.42;;;0.95;;
48849;SDS011;63210;53.370;6.770;2023-04-03T15:48:57;2.67;;;1.17;;
48849;SDS011;63210;53.370;6.770;2023-04-03T15:51:22;2.15;;;1.30;;
48849;SDS011;63210;53.370;6.770;2023-04-03T15:53:53;2.80;;;1.00;;
48849;SDS011;63210;53.370;6.770;2023-04-03T15:58:50;3.45;;;1.20;;
48849;SDS011;63210;53.370;6.770;2023-04-03T16:01:23;3.47;;;1.30;;
48849;SDS011;63210;53.370;6.770;2023-04-03T16:03:52;2.55;;;1.17;;
48849;SDS011;63210;53.370;6.770;2023-04-03T16:06:31;1.77;;;1.00;;
48849;SDS011;63210;53.370;6.770;2023-04-03T16:09:07;2.03;;;1.20;;
48849;SDS011;63210;53.370;6.770;2023-04-03T16:11:41;2.45;;;1.15;;
48849;SDS011;63210;53.370;6.770;2023-04-03T16:14:14;3.40;;;1.17;;
48849;SDS011;63210;53.370;6.770;2023-04-03T16:16:59;1.75;;;0.90;;
48849;SDS011;63210;53.370;6.770;2023-04-03T16:19:25;3.13;;;1.10;;
48849;SDS011;63210;53.370;6.770;2023-04-03T16:21:53;1.80;;;0.90;;
48849;SDS011;63210;53.370;6.770;2023-04-03T16:24:22;2.13;;;1.00;;
48849;SDS011;63210;53.370;6.770;2023-04-03T16:26:47;3.28;;;1.30;;
48849;SDS011;63210;53.370;6.770;2023-04-03T16:29:18;2.28;;;1.30;;
48849;SDS011;63210;53.370;6.770;2023-04-03T16:31:56;1.50;;;0.85;;
48849;SDS011;63210;53.370;6.770;2023-04-03T16:34:30;3.08;;;1.00;;
48849;SDS011;63210;53.370;6.770;2023-04-03T16:37:04;2.90;;;1.00;;
48849;SDS011;63210;53.370;6.770;2023-04-03T16:39:34;2.83;;;1.10;;
48849;SDS011;63210;53.370;6.770;2023-04-03T16:42:05;3.22;;;1.40;;
48849;SDS011;63210;53.370;6.770;2023-04-03T16:44:33;2.10;;;1.05;;
48849;SDS011;63210;53.370;6.770;2023-04-03T16:47:01;2.67;;;1.27;;
48849;SDS011;63210;53.370;6.770;2023-04-03T16:49:27;3.47;;;1.00;;
48849;SDS011;63210;53.370;6.770;2023-04-03T16:51:58;2.10;;;1.47;;
48849;SDS011;63210;53.370;6.770;2023-04-03T16:54:23;4.60;;;1.30;;
48849;SDS011;63210;53.370;6.770;2023-04-03T16:56:51;3.03;;;1.13;;
48849;SDS011;63210;53.370;6.770;2023-04-03T16:59:20;1.90;;;1.13;;
48849;SDS011;63210;53.370;6.770;2023-04-03T17:01:58;2.28;;;1.15;;
48849;SDS011;63210;53.370;6.770;2023-04-03T17:04:27;1.38;;;1.08;;
48849;SDS011;63210;53.370;6.770;2023-04-03T17:06:53;3.53;;;1.17;;
48849;SDS011;63210;53.370;6.770;2023-04-03T17:09:24;5.00;;;1.10;;
48849;SDS011;63210;53.370;6.770;2023-04-03T17:11:50;3.50;;;1.30;;
48849;SDS011;63210;53.370;6.770;2023-04-03T17:14:22;1.63;;;1.13;;
48849;SDS011;63210;53.370;6.770;2023-04-03T17:16:50;5.60;;;1.30;;
48849;SDS011;63210;53.370;6.770;2023-04-03T17:19:26;3.38;;;1.23;;
48849;SDS011;63210;53.370;6.770;2023-04-03T17:21:52;2.42;;;1.20;;
48849;SDS011;63210;53.370;6.770;2023-04-03T17:24:23;3.45;;;1.27;;
48849;SDS011;63210;53.370;6.770;2023-04-03T17:26:49;3.72;;;1.10;;
48849;SDS011;63210;53.370;6.770;2023-04-03T17:29:14;3.40;;;1.20;;
48849;SDS011;63210;53.370;6.770;2023-04-03T17:31:42;4.03;;;1.17;;
48849;SDS011;63210;53.370;6.770;2023-04-03T17:34:14;4.25;;;1.30;;
48849;SDS011;63210;53.370;6.770;2023-04-03T17:36:42;4.22;;;1.13;;
48849;SDS011;63210;53.370;6.770;2023-04-03T17:39:10;3.15;;;1.30;;
48849;SDS011;63210;53.370;6.770;2023-04-03T17:41:39;1.10;;;1.00;;